createdAt,value
2019-04-09T00:01:28.484Z,21.40
2019-04-09T00:03:32.195Z,21.83
2019-04-09T00:05:35.890Z,23.43
2019-04-09T00:07:51.665Z,22.70
2019-04-09T00:09:45.524Z,23.10
2019-04-09T00:11:49.892Z,20.60
2019-04-09T00:13:53.744Z,22.13
2019-04-09T00:15:58.458Z,23.43
2019-04-09T00:18:02.394Z,22.47
2019-04-09T00:20:08.242Z,23.10
2019-04-09T00:22:12.477Z,26.43
2019-04-09T00:24:16.743Z,24.47
2019-04-09T00:26:20.667Z,23.90
2019-04-09T00:28:24.925Z,23.60
2019-04-09T00:30:29.126Z,22.67
2019-04-09T00:32:32.865Z,22.03
2019-04-09T00:34:36.451Z,23.97
2019-04-09T00:36:40.153Z,23.27
2019-04-09T00:38:43.964Z,22.23
2019-04-09T00:40:48.525Z,22.80
2019-04-09T00:42:52.296Z,23.30
2019-04-09T00:44:55.924Z,23.27
2019-04-09T00:46:59.765Z,22.93
2019-04-09T00:49:03.493Z,22.30
2019-04-09T00:51:08.318Z,23.40
2019-04-09T00:53:12.107Z,23.47
2019-04-09T00:55:16.802Z,24.60
2019-04-09T00:57:20.709Z,24.87
2019-04-09T00:59:24.510Z,22.63
2019-04-09T01:01:30.312Z,24.37
2019-04-09T01:03:34.517Z,25.10
2019-04-09T01:05:38.301Z,22.67
2019-04-09T01:07:41.998Z,23.10
2019-04-09T01:09:45.719Z,21.83
2019-04-09T01:11:49.956Z,21.20
2019-04-09T01:13:53.676Z,21.87
2019-04-09T01:15:58.261Z,24.07
2019-04-09T01:18:02.788Z,20.67
2019-04-09T01:20:07.325Z,23.77
2019-04-09T01:22:11.011Z,23.00
2019-04-09T01:24:25.804Z,22.43
2019-04-09T01:26:28.539Z,23.37
2019-04-09T01:28:37.206Z,22.47
2019-04-09T01:30:52.443Z,24.23
2019-04-09T01:33:16.290Z,23.07
2019-04-09T01:35:26.988Z,23.10
2019-04-09T01:37:44.981Z,24.60
2019-04-09T01:39:53.321Z,22.90
2019-04-09T01:42:02.578Z,22.77
2019-04-09T01:44:16.936Z,22.10
2019-04-09T01:46:24.861Z,20.87
2019-04-09T01:48:46.950Z,23.73
2019-04-09T01:51:08.451Z,24.30
2019-04-09T01:53:30.363Z,23.33
2019-04-09T01:55:35.730Z,23.60
2019-04-09T01:57:53.038Z,23.87
2019-04-09T02:00:13.841Z,23.37
2019-04-09T02:02:35.703Z,22.30
2019-04-09T02:04:58.284Z,24.97
2019-04-09T02:07:03.686Z,24.63
2019-04-09T02:09:15.923Z,25.77
2019-04-09T02:11:24.237Z,26.83
2019-04-09T02:13:29.631Z,24.90
2019-04-09T02:15:35.168Z,25.50
2019-04-09T02:17:40.575Z,23.63
2019-04-09T02:19:54.572Z,25.67
2019-04-09T02:22:09.598Z,25.17
2019-04-09T02:24:31.156Z,23.50
2019-04-09T02:26:37.032Z,25.80
2019-04-09T02:29:00.446Z,25.03
2019-04-09T02:31:18.031Z,26.90
2019-04-09T02:33:23.695Z,26.23
2019-04-09T02:38:03.742Z,24.47
2019-04-09T02:40:12.286Z,25.90
2019-04-09T02:42:21.048Z,24.37
2019-04-09T02:44:45.750Z,25.13
2019-04-09T02:46:53.975Z,26.93
2019-04-09T02:48:59.317Z,25.40
2019-04-09T02:51:13.968Z,25.30
2019-04-09T02:53:34.992Z,24.53
2019-04-09T02:55:40.970Z,24.90
2019-04-09T02:57:50.324Z,27.47
2019-04-09T02:59:56.854Z,29.30
2019-04-09T03:02:14.711Z,28.60
2019-04-09T03:04:20.644Z,27.53
2019-04-09T03:06:38.579Z,27.50
2019-04-09T03:08:47.884Z,28.83
2019-04-09T03:10:53.930Z,29.23
2019-04-09T03:13:05.456Z,28.57
2019-04-09T03:15:13.798Z,29.40
2019-04-09T03:17:31.465Z,27.70
2019-04-09T03:19:43.225Z,30.57
2019-04-09T03:21:48.678Z,35.47
2019-04-09T03:24:10.538Z,32.60
2019-04-09T03:26:19.792Z,31.60
2019-04-09T03:28:41.406Z,38.77
2019-04-09T03:30:53.111Z,35.60
2019-04-09T03:33:09.750Z,35.77
2019-04-09T03:35:23.899Z,38.20
2019-04-09T03:37:39.232Z,36.23
2019-04-09T03:39:57.263Z,41.23
2019-04-09T03:42:05.950Z,34.73
2019-04-09T03:44:21.431Z,43.73
2019-04-09T03:46:27.810Z,38.07
2019-04-09T03:48:50.364Z,41.50
2019-04-09T03:50:56.706Z,36.00
2019-04-09T03:53:05.863Z,41.17
2019-04-09T03:55:14.543Z,36.67
2019-04-09T03:57:19.876Z,37.07
2019-04-09T03:59:27.880Z,38.77
2019-04-09T04:01:39.256Z,35.53
2019-04-09T04:04:01.250Z,40.60
2019-04-09T04:06:07.408Z,39.90
2019-04-09T04:08:16.025Z,39.17
2019-04-09T04:10:24.151Z,41.47
2019-04-09T04:12:45.891Z,43.87
2019-04-09T04:14:51.597Z,42.30
2019-04-09T04:16:57.229Z,44.67
2019-04-09T04:19:03.079Z,40.83
2019-04-09T04:21:12.158Z,43.50
2019-04-09T04:23:20.443Z,48.67
2019-04-09T04:25:31.526Z,43.83
2019-04-09T04:27:36.822Z,39.70
2019-04-09T04:29:48.134Z,44.17
2019-04-09T04:32:00.676Z,46.47
2019-04-09T04:34:12.425Z,51.43
2019-04-09T04:36:35.077Z,48.53
2019-04-09T04:38:47.541Z,48.90
2019-04-09T04:41:00.015Z,46.57
2019-04-09T04:43:08.418Z,44.77
2019-04-09T04:45:13.905Z,47.17
2019-04-09T04:47:35.491Z,43.10
2019-04-09T04:49:43.605Z,43.43
2019-04-09T04:51:49.039Z,41.67
2019-04-09T04:53:55.156Z,43.50
2019-04-09T04:56:17.406Z,43.67
2019-04-09T04:58:46.313Z,46.93
2019-04-09T05:00:47.006Z,45.87
2019-04-09T05:03:09.002Z,42.87
2019-04-09T05:05:33.251Z,43.13
2019-04-09T05:07:43.395Z,45.43
2019-04-09T05:09:46.661Z,41.20
2019-04-09T05:12:01.364Z,46.00
2019-04-09T05:14:07.493Z,49.20
2019-04-09T05:16:29.416Z,45.67
2019-04-09T05:18:35.741Z,44.47
2019-04-09T05:20:57.667Z,41.57
2019-04-09T05:23:11.984Z,42.70
2019-04-09T05:25:20.845Z,42.60
2019-04-09T05:27:30.875Z,43.47
2019-04-09T05:29:52.738Z,41.70
2019-04-09T05:32:04.030Z,41.63
2019-04-09T05:34:28.315Z,43.40
2019-04-09T05:36:34.237Z,43.07
2019-04-09T05:38:40.237Z,40.27
2019-04-09T05:40:48.342Z,42.20
2019-04-09T05:42:53.821Z,40.07
2019-04-09T05:45:16.014Z,41.07
2019-04-09T05:47:24.615Z,44.10
2019-04-09T05:49:31.806Z,43.43
2019-04-09T05:51:41.527Z,43.00
2019-04-09T05:53:47.278Z,43.37
2019-04-09T05:55:56.049Z,43.80
2019-04-09T05:58:17.951Z,47.27
2019-04-09T06:00:23.996Z,45.47
2019-04-09T06:02:36.028Z,45.57
2019-04-09T06:04:42.351Z,48.17
2019-04-09T06:06:48.517Z,47.70
2019-04-09T06:09:06.522Z,46.97
2019-04-09T06:11:11.594Z,46.77
2019-04-09T06:13:17.521Z,47.20
2019-04-09T06:15:21.689Z,47.10
2019-04-09T06:17:26.110Z,45.07
2019-04-09T06:19:30.523Z,45.50
2019-04-09T06:21:40.527Z,42.90
2019-04-09T06:23:40.441Z,47.10
2019-04-09T06:25:44.601Z,47.07
2019-04-09T06:27:49.688Z,47.57
2019-04-09T06:29:54.185Z,47.33
2019-04-09T06:31:59.844Z,44.37
2019-04-09T06:34:18.143Z,46.70
2019-04-09T06:36:37.461Z,46.10
2019-04-09T06:39:00.599Z,48.20
2019-04-09T06:41:10.875Z,46.50
2019-04-09T06:43:23.480Z,47.80
2019-04-09T06:45:30.044Z,49.63
2019-04-09T06:47:52.992Z,46.83
2019-04-09T06:49:59.678Z,49.90
2019-04-09T06:52:09.034Z,44.63
2019-04-09T06:54:17.843Z,49.90
2019-04-09T06:56:23.604Z,46.60
2019-04-09T06:58:47.249Z,46.07
2019-04-09T07:01:01.770Z,44.07
2019-04-09T07:03:16.766Z,45.80
2019-04-09T07:05:34.837Z,46.30
2019-04-09T07:07:57.481Z,45.80
2019-04-09T07:10:20.904Z,45.97
2019-04-09T07:12:33.138Z,45.97
2019-04-09T07:14:53.305Z,44.63
2019-04-09T07:17:04.262Z,47.37
2019-04-09T07:19:27.150Z,48.50
2019-04-09T07:21:38.786Z,49.37
2019-04-09T07:24:00.509Z,45.63
2019-04-09T07:26:25.470Z,45.87
2019-04-09T07:28:34.209Z,48.57
2019-04-09T07:30:49.779Z,44.80
2019-04-09T07:33:01.807Z,47.47
2019-04-09T07:35:31.837Z,49.73
2019-04-09T07:37:34.283Z,44.00
2019-04-09T07:40:00.582Z,47.87
2019-04-09T07:42:20.416Z,43.20
2019-04-09T07:44:41.482Z,44.33
2019-04-09T07:47:06.234Z,47.43
2019-04-09T07:49:21.519Z,46.87
2019-04-09T07:51:45.881Z,44.90
2019-04-09T07:53:53.712Z,45.90
2019-04-09T07:56:03.002Z,46.37
2019-04-09T07:58:12.646Z,47.47
2019-04-09T08:00:24.720Z,46.30
2019-04-09T08:02:31.647Z,48.10
2019-04-09T08:04:44.744Z,48.27
2019-04-09T08:06:51.631Z,46.80
2019-04-09T08:08:58.398Z,46.20
2019-04-09T08:11:05.929Z,47.53
2019-04-09T08:13:23.727Z,49.60
2019-04-09T08:15:33.033Z,47.77
2019-04-09T08:17:43.171Z,49.20
2019-04-09T08:19:51.358Z,47.90
2019-04-09T08:22:12.524Z,51.07
2019-04-09T08:24:34.563Z,48.17
2019-04-09T08:26:47.037Z,51.20
2019-04-09T08:29:09.629Z,49.00
2019-04-09T08:31:18.161Z,50.50
2019-04-09T08:33:37.698Z,49.43
2019-04-09T08:36:01.877Z,46.33
2019-04-09T08:38:27.513Z,50.57
2019-04-09T08:40:47.812Z,48.07
2019-04-09T08:42:52.671Z,50.40
2019-04-09T08:44:58.746Z,49.97
2019-04-09T08:47:05.172Z,48.93
2019-04-09T08:49:28.343Z,50.20
2019-04-09T08:51:52.158Z,48.90
2019-04-09T08:53:58.341Z,50.77
2019-04-09T08:56:19.732Z,50.47
2019-04-09T08:58:41.888Z,48.87
2019-04-09T09:03:28.064Z,51.80
2019-04-09T09:05:54.720Z,48.33
2019-04-09T09:08:10.949Z,47.33
2019-04-09T09:10:26.228Z,48.80
2019-04-09T09:12:50.586Z,46.07
2019-04-09T09:15:05.772Z,46.13
2019-04-09T09:17:14.809Z,46.00
2019-04-09T09:19:20.633Z,47.23
2019-04-09T09:21:35.261Z,46.37
2019-04-09T09:23:41.893Z,46.40
2019-04-09T09:25:52.921Z,47.33
2019-04-09T09:28:07.878Z,48.47
2019-04-09T09:30:29.946Z,46.13
2019-04-09T09:32:45.897Z,47.10
2019-04-09T09:34:57.083Z,47.03
2019-04-09T09:37:03.891Z,46.77
2019-04-09T09:39:10.376Z,45.27
2019-04-09T09:41:22.514Z,48.53
2019-04-09T09:43:31.035Z,48.10
2019-04-09T09:45:42.002Z,45.87
2019-04-09T09:48:05.754Z,47.10
2019-04-09T09:50:15.858Z,45.77
2019-04-09T09:52:18.812Z,46.40
2019-04-09T09:54:28.506Z,45.83
2019-04-09T09:56:36.126Z,48.47
2019-04-09T09:58:48.290Z,44.80
2019-04-09T10:01:06.345Z,48.43
2019-04-09T10:03:06.417Z,45.73
2019-04-09T10:05:10.847Z,46.07
2019-04-09T10:07:38.711Z,46.23
2019-04-09T10:09:33.697Z,47.33
2019-04-09T10:11:56.906Z,45.80
2019-04-09T10:14:13.995Z,46.57
2019-04-09T10:16:28.872Z,44.57
2019-04-09T10:18:57.180Z,48.27
2019-04-09T10:20:51.944Z,48.57
2019-04-09T10:23:15.677Z,47.90
2019-04-09T10:25:39.883Z,48.77
2019-04-09T10:27:48.508Z,45.27
2019-04-09T10:30:12.104Z,46.10
2019-04-09T10:32:31.000Z,45.73
2019-04-09T10:34:37.986Z,46.50
2019-04-09T10:36:52.743Z,47.73
2019-04-09T10:39:01.570Z,48.40
2019-04-09T10:41:20.885Z,45.67
2019-04-09T10:43:41.959Z,49.10
2019-04-09T10:45:59.640Z,45.37
2019-04-09T10:48:14.000Z,45.60
2019-04-09T10:50:33.133Z,45.80
2019-04-09T10:52:54.946Z,46.60
2019-04-09T10:54:59.524Z,46.50
2019-04-09T10:57:11.677Z,47.10
2019-04-09T10:59:17.787Z,44.97
2019-04-09T11:01:33.243Z,44.50
2019-04-09T11:03:38.154Z,46.87
2019-04-09T11:06:02.512Z,48.00
2019-04-09T11:08:09.446Z,45.20
2019-04-09T11:10:31.006Z,44.33
2019-04-09T11:12:35.185Z,43.70
2019-04-09T11:15:00.919Z,45.20
2019-04-09T11:17:19.599Z,44.27
2019-04-09T11:19:41.453Z,45.33
2019-04-09T11:21:54.826Z,45.83
2019-04-09T11:24:09.408Z,43.57
2019-04-09T11:26:34.453Z,45.50
2019-04-09T11:28:43.800Z,44.53
2019-04-09T11:30:52.333Z,43.37
2019-04-09T11:32:58.235Z,42.27
2019-04-09T11:35:19.905Z,45.80
2019-04-09T11:37:39.980Z,42.13
2019-04-09T11:39:48.543Z,43.13
2019-04-09T11:42:11.558Z,43.73
2019-04-09T11:44:17.288Z,42.33
2019-04-09T11:46:26.313Z,42.97
2019-04-09T11:48:36.000Z,45.83
2019-04-09T11:50:42.427Z,42.43
2019-04-09T11:53:04.649Z,45.87
2019-04-09T11:55:22.997Z,41.30
2019-04-09T11:57:37.984Z,39.97
2019-04-09T12:00:01.628Z,42.47
2019-04-09T12:02:14.470Z,40.37
2019-04-09T12:04:20.104Z,38.13
2019-04-09T12:06:41.876Z,38.30
2019-04-09T12:08:57.194Z,37.30
2019-04-09T12:11:09.099Z,39.47
2019-04-09T12:13:20.951Z,35.80
2019-04-09T12:15:38.858Z,35.43
2019-04-09T12:18:01.801Z,36.77
2019-04-09T12:20:15.813Z,35.80
2019-04-09T12:22:41.774Z,35.30
2019-04-09T12:25:04.008Z,32.53
2019-04-09T12:27:10.234Z,32.40
2019-04-09T12:29:32.977Z,32.97
2019-04-09T12:31:50.640Z,29.17
2019-04-09T12:34:13.741Z,31.80
2019-04-09T12:36:29.021Z,30.00
2019-04-09T12:38:41.343Z,31.00
2019-04-09T12:40:49.971Z,31.43
2019-04-09T12:42:58.844Z,31.17
2019-04-09T12:45:10.745Z,29.77
2019-04-09T12:47:22.672Z,27.67
2019-04-09T12:49:41.899Z,27.67
2019-04-09T12:52:03.842Z,26.07
2019-04-09T12:54:10.436Z,26.70
2019-04-09T12:56:28.979Z,25.30
2019-04-09T12:58:34.713Z,24.13
2019-04-09T13:00:40.754Z,23.30
2019-04-09T13:02:58.384Z,24.30
2019-04-09T13:05:07.745Z,23.50
2019-04-09T13:07:16.896Z,24.90
2019-04-09T13:09:30.672Z,24.93
2019-04-09T13:11:48.763Z,22.10
2019-04-09T13:14:03.991Z,23.43
2019-04-09T13:16:15.481Z,23.80
2019-04-09T13:18:24.066Z,21.53
2019-04-09T13:20:30.419Z,22.37
2019-04-09T13:22:46.245Z,22.63
2019-04-09T13:25:01.057Z,18.87
2019-04-09T13:27:18.689Z,20.20
2019-04-09T13:29:24.945Z,19.87
2019-04-09T13:31:47.134Z,19.57
2019-04-09T13:33:55.297Z,19.43
2019-04-09T13:36:06.290Z,20.93
2019-04-09T13:38:29.093Z,20.20
2019-04-09T13:40:47.359Z,18.63
2019-04-09T13:43:05.018Z,21.57
2019-04-09T13:45:11.531Z,22.17
2019-04-09T13:47:23.590Z,20.20
2019-04-09T13:49:46.395Z,20.93
2019-04-09T13:51:54.874Z,21.57
2019-04-09T13:53:59.450Z,18.70
2019-04-09T13:56:04.956Z,19.10
2019-04-09T13:58:08.673Z,20.37
2019-04-09T14:00:15.305Z,21.10
2019-04-09T14:02:19.139Z,19.87
2019-04-09T14:04:43.863Z,19.57
2019-04-09T14:06:48.130Z,19.27
2019-04-09T14:08:53.124Z,20.40
2019-04-09T14:10:59.616Z,23.27
2019-04-09T14:13:03.558Z,24.00
2019-04-09T14:15:09.951Z,24.97
2019-04-09T14:17:13.931Z,24.67
2019-04-09T14:19:17.840Z,22.63
2019-04-09T14:21:22.669Z,24.80
2019-04-09T14:23:26.366Z,23.90
2019-04-09T14:25:30.261Z,24.00
2019-04-09T14:27:36.895Z,24.63
2019-04-09T14:29:40.659Z,23.63
2019-04-09T14:31:44.669Z,24.30
2019-04-09T14:33:49.438Z,24.63
2019-04-09T14:35:54.033Z,26.30
2019-04-09T14:37:57.912Z,25.37
2019-04-09T14:40:01.828Z,25.57
2019-04-09T14:42:06.290Z,23.33
2019-04-09T14:44:10.052Z,24.37
2019-04-09T14:46:13.850Z,22.90
2019-04-09T14:48:17.600Z,24.57
2019-04-09T14:50:21.984Z,22.60
2019-04-09T14:52:26.701Z,24.53
2019-04-09T14:54:30.532Z,22.57
2019-04-09T14:56:34.297Z,22.33
2019-04-09T14:58:38.153Z,19.07
2019-04-09T15:00:43.833Z,21.97
2019-04-09T15:02:47.310Z,22.20
2019-04-09T15:04:51.105Z,21.97
2019-04-09T15:06:54.890Z,21.43
2019-04-09T15:08:58.667Z,22.33
2019-04-09T15:11:03.035Z,20.80
2019-04-09T15:13:07.224Z,19.70
2019-04-09T15:15:11.544Z,20.90
2019-04-09T15:17:16.350Z,23.17
2019-04-09T15:19:21.271Z,21.53
2019-04-09T15:21:33.271Z,23.10
2019-04-09T15:23:37.046Z,21.60
2019-04-09T15:25:42.225Z,26.33
2019-04-09T15:27:46.470Z,27.83
2019-04-09T15:29:50.335Z,28.07
2019-04-09T15:31:54.284Z,29.33
2019-04-09T15:33:58.037Z,27.30
2019-04-09T15:36:02.154Z,31.87
2019-04-09T15:38:08.927Z,28.83
2019-04-09T15:40:13.427Z,28.77
2019-04-09T15:42:17.432Z,30.73
2019-04-09T15:44:23.699Z,30.10
2019-04-09T15:46:26.995Z,29.90
2019-04-09T15:48:30.774Z,28.60
2019-04-09T15:50:35.831Z,27.90
2019-04-09T15:52:40.737Z,33.17
2019-04-09T15:54:45.917Z,29.23
2019-04-09T15:56:50.794Z,30.07
2019-04-09T15:58:54.755Z,28.27
2019-04-09T16:00:58.512Z,28.27
2019-04-09T16:03:13.351Z,29.33
2019-04-09T16:05:08.763Z,31.23
2019-04-09T16:07:13.399Z,27.90
2019-04-09T16:09:19.056Z,29.33
2019-04-09T16:11:22.860Z,30.67
2019-04-09T16:13:31.490Z,28.50
2019-04-09T16:15:35.414Z,32.30
2019-04-09T16:17:59.876Z,27.93
2019-04-09T16:19:59.926Z,29.20
2019-04-09T16:22:03.864Z,28.80
2019-04-09T16:24:07.710Z,29.27
2019-04-09T16:26:12.509Z,27.57
2019-04-09T16:28:17.319Z,27.70
2019-04-09T16:30:21.564Z,26.40
2019-04-09T16:32:26.160Z,28.73
2019-04-09T16:34:31.092Z,29.40
2019-04-09T16:36:34.792Z,27.07
2019-04-09T16:38:39.587Z,26.57
2019-04-09T16:40:45.534Z,26.87
2019-04-09T16:42:50.204Z,27.87
2019-04-09T16:45:00.646Z,26.50
2019-04-09T16:46:59.688Z,25.63
2019-04-09T16:49:04.773Z,25.63
2019-04-09T16:51:11.411Z,24.17
2019-04-09T16:53:17.281Z,24.00
2019-04-09T16:55:22.161Z,25.83
2019-04-09T16:57:27.746Z,25.40
2019-04-09T16:59:32.859Z,26.53
2019-04-09T17:01:38.063Z,26.63
2019-04-09T17:03:46.831Z,26.37
2019-04-09T17:05:48.550Z,29.17
2019-04-09T17:07:52.630Z,27.57
2019-04-09T17:09:58.146Z,26.90
2019-04-09T17:12:03.007Z,26.07
2019-04-09T17:14:07.079Z,24.63
2019-04-09T17:16:11.818Z,27.07
2019-04-09T17:18:17.199Z,31.53
2019-04-09T17:20:21.851Z,29.97
2019-04-09T17:24:56.611Z,27.83
2019-04-09T17:27:02.388Z,26.40
2019-04-09T17:29:06.280Z,25.57
2019-04-09T17:31:10.281Z,27.70
2019-04-09T17:33:14.725Z,28.93
2019-04-09T17:35:20.899Z,30.00
2019-04-09T17:37:25.421Z,29.87
2019-04-09T17:39:30.296Z,27.60
2019-04-09T17:41:34.404Z,27.23
2019-04-09T17:43:38.355Z,27.77
2019-04-09T17:45:43.722Z,29.40
2019-04-09T17:47:47.654Z,26.67
2019-04-09T17:49:51.658Z,26.33
2019-04-09T17:51:55.548Z,28.30
2019-04-09T17:53:59.529Z,27.57
2019-04-09T17:56:03.574Z,27.30
2019-04-09T17:58:08.750Z,27.70
2019-04-09T18:00:15.986Z,25.30
2019-04-09T18:02:21.103Z,26.37
2019-04-09T18:04:37.060Z,28.07
2019-04-09T18:06:32.370Z,27.70
2019-04-09T18:08:36.816Z,27.77
2019-04-09T18:10:41.263Z,25.90
2019-04-09T18:12:45.258Z,26.23
2019-04-09T18:14:50.000Z,26.43
2019-04-09T18:16:55.272Z,25.77
2019-04-09T18:18:58.973Z,24.17
2019-04-09T18:21:02.974Z,25.67
2019-04-09T18:23:07.656Z,25.70
2019-04-09T18:25:11.767Z,26.53
2019-04-09T18:27:15.489Z,27.23
2019-04-09T18:29:19.508Z,27.87
2019-04-09T18:31:30.833Z,26.27
2019-04-09T18:33:29.986Z,30.70
2019-04-09T18:35:33.984Z,26.60
2019-04-09T18:37:37.909Z,29.10
2019-04-09T18:39:41.708Z,27.43
2019-04-09T18:41:46.355Z,24.60
2019-04-09T18:43:50.063Z,27.77
2019-04-09T18:45:53.891Z,25.70
2019-04-09T18:47:57.832Z,26.30
2019-04-09T18:50:02.369Z,26.37
2019-04-09T18:52:06.559Z,25.43
2019-04-09T18:54:11.456Z,24.40
2019-04-09T18:56:15.456Z,25.50
2019-04-09T18:58:20.928Z,26.40
2019-04-09T19:00:36.075Z,29.57
2019-04-09T19:02:41.426Z,28.73
2019-04-09T19:04:46.573Z,29.90
2019-04-09T19:06:50.518Z,28.80
2019-04-09T19:08:55.466Z,29.90
2019-04-09T19:10:59.403Z,41.70
2019-04-09T19:13:03.213Z,36.03
2019-04-09T19:15:07.188Z,30.47
2019-04-09T19:17:11.007Z,30.20
2019-04-09T19:19:14.782Z,34.60
2019-04-09T19:21:20.652Z,30.40
2019-04-09T19:23:24.430Z,31.50
2019-04-09T19:25:29.419Z,30.20
2019-04-09T19:27:33.782Z,29.67
2019-04-09T19:29:37.779Z,29.47
2019-04-09T19:31:41.850Z,29.93
2019-04-09T19:33:45.995Z,28.10
2019-04-09T19:35:50.013Z,29.70
2019-04-09T19:37:55.067Z,29.10
2019-04-09T19:40:16.155Z,28.00
2019-04-09T19:42:20.703Z,30.27
2019-04-09T19:44:25.406Z,29.77
2019-04-09T19:46:29.233Z,28.80
2019-04-09T19:48:33.148Z,29.50
2019-04-09T19:50:37.923Z,28.70
2019-04-09T19:52:41.937Z,28.40
2019-04-09T19:54:45.650Z,27.40
2019-04-09T19:56:49.430Z,31.87
2019-04-09T19:58:55.620Z,28.33
2019-04-09T20:00:58.688Z,31.77
2019-04-09T20:03:03.226Z,29.63
2019-04-09T20:05:08.266Z,26.57
2019-04-09T20:07:12.239Z,26.80
2019-04-09T20:09:17.906Z,28.30
2019-04-09T20:11:21.867Z,28.60
2019-04-09T20:13:25.947Z,27.60
2019-04-09T20:15:31.061Z,28.77
2019-04-09T20:17:35.271Z,30.83
2019-04-09T20:19:39.493Z,28.80
2019-04-09T20:21:43.221Z,31.17
2019-04-09T20:23:46.951Z,32.87
2019-04-09T20:25:51.476Z,30.90
2019-04-09T20:27:55.339Z,31.57
2019-04-09T20:29:59.455Z,31.20
2019-04-09T20:32:03.315Z,33.13
2019-04-09T20:34:07.938Z,34.20
2019-04-09T20:36:11.977Z,33.10
2019-04-09T20:38:16.536Z,32.00
2019-04-09T20:40:21.638Z,32.73
2019-04-09T20:42:26.689Z,31.57
2019-04-09T20:44:30.693Z,30.70
2019-04-09T20:46:35.950Z,32.27
2019-04-09T20:48:39.866Z,32.13
2019-04-09T20:50:44.574Z,33.33
2019-04-09T20:52:48.294Z,31.50
2019-04-09T20:55:07.069Z,32.33
2019-04-09T20:57:11.829Z,33.60
2019-04-09T20:59:36.794Z,30.77
2019-04-09T21:01:33.344Z,32.07
2019-04-09T21:03:57.718Z,32.87
2019-04-09T21:06:00.279Z,31.53
2019-04-09T21:08:00.580Z,33.37
2019-04-09T21:10:06.266Z,32.97
2019-04-09T21:12:10.820Z,31.77
2019-04-09T21:14:16.006Z,30.10
2019-04-09T21:16:20.417Z,31.93
2019-04-09T21:18:25.060Z,35.57
2019-04-09T21:20:28.890Z,35.00
2019-04-09T21:22:34.625Z,32.90
2019-04-09T21:24:39.518Z,33.97
2019-04-09T21:26:44.871Z,34.07
2019-04-09T21:28:49.924Z,34.57
2019-04-09T21:30:54.597Z,36.73
2019-04-09T21:32:59.215Z,35.13
2019-04-09T21:35:03.365Z,34.33
2019-04-09T21:37:08.066Z,36.57
2019-04-09T21:39:11.898Z,36.03
2019-04-09T21:41:16.464Z,34.53
2019-04-09T21:43:20.419Z,32.20
2019-04-09T21:45:24.164Z,32.87
2019-04-09T21:47:28.218Z,33.57
2019-04-09T21:49:32.227Z,36.97
2019-04-09T21:51:42.489Z,34.70
2019-04-09T21:53:46.281Z,35.20
2019-04-09T21:55:50.944Z,32.20
2019-04-09T21:57:55.881Z,30.77
2019-04-09T21:59:59.919Z,31.83
2019-04-09T22:02:05.090Z,29.17
2019-04-09T22:04:09.403Z,29.60
2019-04-09T22:06:23.328Z,29.60
2019-04-09T22:08:19.479Z,29.20
2019-04-09T22:10:23.286Z,28.93
2019-04-09T22:12:27.408Z,30.33
2019-04-09T22:14:31.519Z,30.87
2019-04-09T22:16:35.259Z,31.33
2019-04-09T22:18:39.637Z,31.20
2019-04-09T22:20:43.527Z,29.70
2019-04-09T22:22:48.298Z,32.80
2019-04-09T22:24:52.164Z,32.20
2019-04-09T22:26:58.161Z,33.60
2019-04-09T22:29:03.037Z,34.13
2019-04-09T22:31:07.512Z,32.20
2019-04-09T22:33:13.947Z,34.93
2019-04-09T22:35:17.146Z,33.37
2019-04-09T22:37:21.946Z,32.70
2019-04-09T22:39:26.741Z,35.30
2019-04-09T22:41:31.171Z,36.87
2019-04-09T22:43:35.040Z,37.10
2019-04-09T22:45:39.773Z,37.37
2019-04-09T22:47:43.863Z,36.90
2019-04-09T22:49:49.007Z,38.87
2019-04-09T22:51:53.119Z,38.40
2019-04-09T22:53:57.010Z,38.23
2019-04-09T22:56:00.713Z,38.40
2019-04-09T22:58:04.505Z,40.47
2019-04-09T23:00:26.916Z,39.70
2019-04-09T23:02:51.044Z,41.57
2019-04-09T23:05:02.756Z,38.00
2019-04-09T23:07:26.269Z,39.23
2019-04-09T23:09:48.366Z,38.90
2019-04-09T23:12:00.020Z,39.70
2019-04-09T23:14:04.062Z,39.30
2019-04-09T23:16:08.832Z,38.50
2019-04-09T23:18:26.609Z,43.00
2019-04-09T23:20:30.604Z,40.70
2019-04-09T23:22:35.335Z,42.53
2019-04-09T23:24:39.968Z,41.40
2019-04-09T23:26:43.996Z,43.57
2019-04-09T23:28:49.716Z,45.20
2019-04-09T23:30:54.446Z,44.20
2019-04-09T23:32:58.425Z,48.00
2019-04-09T23:35:03.112Z,43.10
2019-04-09T23:37:08.189Z,47.50
2019-04-09T23:39:12.184Z,44.10
2019-04-09T23:41:15.815Z,47.30
2019-04-09T23:43:19.624Z,43.83
2019-04-09T23:45:24.231Z,43.37
2019-04-09T23:47:28.945Z,43.33
2019-04-09T23:49:32.891Z,54.30
2019-04-09T23:51:36.528Z,60.77
2019-04-09T23:53:59.615Z,67.00
2019-04-09T23:56:03.483Z,67.43
2019-04-09T23:58:09.131Z,69.50
